Time;durP1;ratioP1;P1;durP2;ratioP2;P2;SDS_P1;SDS_P2;PMS_P1;PMS_P2;Temp;Humidity;BMP_temperature;BMP_pressure;BME280_temperature;BME280_humidity;BME280_pressure;Samples;Min_cycle;Max_cycle;Signal;HPM_P1;HPM_P2
2023/12/21 00:01:03;;;;;;;14.55;2.50;;;11.50;99.90;;;;;;5149549;27;20017;-51
2023/12/21 00:03:28;;;;;;;13.63;2.45;;;11.40;99.90;;;;;;5131599;27;20227;-51
2023/12/21 00:05:54;;;;;;;15.15;2.85;;;11.50;99.90;;;;;;5149816;27;20015;-50
2023/12/21 00:08:20;;;;;;;14.90;2.70;;;11.50;99.90;;;;;;5149222;27;20208;-50
2023/12/21 00:10:45;;;;;;;16.42;2.70;;;11.50;99.90;;;;;;5149326;27;20086;-50
2023/12/21 00:13:11;;;;;;;12.85;2.90;;;11.50;99.90;;;;;;5147965;27;20208;-51
2023/12/21 00:15:37;;;;;;;17.23;3.03;;;11.50;99.90;;;;;;5148436;27;20019;-51
2023/12/21 00:18:02;;;;;;;9.05;2.10;;;11.50;99.90;;;;;;5149433;27;20059;-51
2023/12/21 00:20:28;;;;;;;13.95;3.40;;;11.50;99.90;;;;;;5149495;27;20023;-51
2023/12/21 00:22:54;;;;;;;17.23;2.58;;;11.60;99.90;;;;;;5149193;27;20094;-50
2023/12/21 00:25:19;;;;;;;10.93;2.60;;;11.60;99.90;;;;;;5149112;27;20042;-50
2023/12/21 00:27:45;;;;;;;12.18;3.13;;;11.60;99.90;;;;;;5148857;27;20269;-47
2023/12/21 00:30:11;;;;;;;11.95;2.35;;;11.60;99.90;;;;;;5149275;27;20023;-48
2023/12/21 00:32:37;;;;;;;12.70;2.85;;;11.60;99.90;;;;;;5149166;27;20030;-50
2023/12/21 00:35:03;;;;;;;11.75;2.60;;;11.60;99.90;;;;;;5148933;27;20272;-47
2023/12/21 00:37:30;;;;;;;11.52;2.22;;;11.60;99.90;;;;;;5148901;27;20037;-50
2023/12/21 00:39:56;;;;;;;10.95;2.08;;;11.70;99.90;;;;;;5149044;27;20185;-50
2023/12/21 00:42:23;;;;;;;9.82;2.08;;;11.70;99.90;;;;;;5148978;27;20088;-51
2023/12/21 00:44:49;;;;;;;10.95;2.00;;;11.70;99.90;;;;;;5148651;27;20019;-51
2023/12/21 00:47:15;;;;;;;11.88;2.53;;;11.70;99.90;;;;;;5148940;27;20261;-50
2023/12/21 00:49:40;;;;;;;11.85;2.30;;;11.70;99.90;;;;;;5149021;27;20273;-50
2023/12/21 00:52:06;;;;;;;10.45;2.10;;;11.70;99.90;;;;;;5148863;27;20039;-50
2023/12/21 00:54:32;;;;;;;11.68;2.15;;;11.70;99.90;;;;;;5148859;27;20215;-51
2023/12/21 00:56:57;;;;;;;11.40;2.80;;;11.70;99.90;;;;;;5147452;27;20050;-50
2023/12/21 00:59:23;;;;;;;12.38;2.72;;;11.70;99.90;;;;;;5147639;27;20027;-50
2023/12/21 01:01:49;;;;;;;7.90;2.47;;;11.70;99.90;;;;;;5148509;27;20027;-50
2023/12/21 01:04:14;;;;;;;9.45;2.22;;;11.70;99.90;;;;;;5148660;27;20050;-50
2023/12/21 01:06:42;;;;;;;10.82;3.05;;;11.70;99.90;;;;;;5148598;27;20086;-49
2023/12/21 01:09:08;;;;;;;9.57;2.30;;;11.70;99.90;;;;;;5147803;27;20038;-50
2023/12/21 01:11:34;;;;;;;8.85;2.15;;;11.70;99.90;;;;;;5148408;27;20034;-50
2023/12/21 01:13:59;;;;;;;9.45;2.25;;;11.70;99.90;;;;;;5148055;27;20015;-50
2023/12/21 01:16:25;;;;;;;8.25;2.10;;;11.70;99.90;;;;;;5147844;27;20144;-51
2023/12/21 01:18:51;;;;;;;9.00;1.83;;;11.70;99.90;;;;;;5148227;27;20027;-50
2023/12/21 01:21:16;;;;;;;8.13;2.17;;;11.70;99.90;;;;;;5148087;27;20027;-50
2023/12/21 01:23:42;;;;;;;10.25;2.47;;;11.70;99.90;;;;;;5147455;27;20050;-50
2023/12/21 01:26:08;;;;;;;8.73;1.88;;;11.70;99.90;;;;;;5148252;27;20023;-51
2023/12/21 01:28:33;;;;;;;10.32;1.95;;;11.70;99.90;;;;;;5147614;27;20034;-49
2023/12/21 01:30:59;;;;;;;7.75;1.75;;;11.70;99.90;;;;;;5148042;27;20051;-50
2023/12/21 01:33:25;;;;;;;8.30;1.70;;;11.70;99.90;;;;;;5148009;27;20023;-50
2023/12/21 01:35:50;;;;;;;7.03;1.85;;;11.70;99.90;;;;;;5148047;27;20298;-47
2023/12/21 01:38:16;;;;;;;9.23;2.03;;;11.70;99.90;;;;;;5147960;27;20042;-47
2023/12/21 01:40:41;;;;;;;13.15;2.20;;;11.80;99.90;;;;;;5129683;27;20027;-48
2023/12/21 01:43:07;;;;;;;16.58;2.70;;;11.70;99.90;;;;;;5147740;27;20146;-48
2023/12/21 01:45:33;;;;;;;7.47;1.90;;;11.80;99.90;;;;;;5147549;27;20225;-50
2023/12/21 01:47:59;;;;;;;12.90;2.15;;;11.70;99.90;;;;;;5147414;27;20023;-50
2023/12/21 01:50:25;;;;;;;9.13;1.83;;;11.70;99.90;;;;;;5147732;27;20030;-50
2023/12/21 01:52:53;;;;;;;7.63;1.88;;;11.70;99.90;;;;;;5129454;27;20174;-50
2023/12/21 01:55:18;;;;;;;9.85;2.15;;;11.70;99.90;;;;;;5147744;27;20050;-51
2023/12/21 01:57:44;;;;;;;7.63;1.52;;;11.70;99.90;;;;;;5147474;27;20034;-50
2023/12/21 02:00:10;;;;;;;17.20;2.63;;;11.70;99.90;;;;;;5147068;27;20052;-50
2023/12/21 02:02:36;;;;;;;8.43;1.88;;;11.70;99.90;;;;;;5146902;27;20058;-50
2023/12/21 02:05:01;;;;;;;9.88;2.47;;;11.70;99.90;;;;;;5147419;27;20154;-50
2023/12/21 02:07:27;;;;;;;7.85;2.33;;;11.70;99.90;;;;;;5147237;27;20193;-50
2023/12/21 02:09:53;;;;;;;12.70;2.33;;;11.80;99.90;;;;;;5147287;27;20030;-50
2023/12/21 02:12:18;;;;;;;8.25;1.90;;;11.70;99.90;;;;;;5147382;27;20181;-50
2023/12/21 02:14:44;;;;;;;9.45;1.90;;;11.70;99.90;;;;;;5147294;27;20102;-50
2023/12/21 02:17:11;;;;;;;8.50;2.13;;;11.80;99.90;;;;;;5146893;27;20037;-46
2023/12/21 02:19:38;;;;;;;18.33;2.53;;;11.80;99.90;;;;;;5147057;27;20019;-47
2023/12/21 02:22:03;;;;;;;13.55;2.08;;;11.80;99.90;;;;;;5146022;27;20071;-47
2023/12/21 02:24:29;;;;;;;13.00;2.15;;;11.80;99.90;;;;;;5146100;27;20034;-47
2023/12/21 02:26:55;;;;;;;8.25;2.08;;;11.80;99.90;;;;;;5146377;27;20027;-50
2023/12/21 02:29:20;;;;;;;10.77;2.35;;;11.80;99.90;;;;;;5146958;27;20035;-47
2023/12/21 02:31:46;;;;;;;14.32;2.33;;;11.80;99.90;;;;;;5146828;27;20035;-50
2023/12/21 02:34:12;;;;;;;11.70;2.40;;;11.80;99.90;;;;;;5146512;27;20034;-48
2023/12/21 02:36:37;;;;;;;11.60;2.05;;;11.80;99.90;;;;;;5146925;27;20099;-47
2023/12/21 02:39:03;;;;;;;11.50;2.70;;;11.90;99.90;;;;;;5147034;27;20269;-47
2023/12/21 02:41:28;;;;;;;7.82;2.50;;;11.90;99.90;;;;;;5146724;27;20199;-48
2023/12/21 02:43:54;;;;;;;11.35;3.00;;;11.90;99.90;;;;;;5146785;27;20031;-47
2023/12/21 02:46:22;;;;;;;6.13;1.70;;;11.90;99.90;;;;;;5146815;27;20023;-47
2023/12/21 02:48:47;;;;;;;11.55;2.30;;;11.90;99.90;;;;;;5146363;27;20280;-47
2023/12/21 02:51:13;;;;;;;13.23;2.20;;;11.90;99.90;;;;;;5146911;28;20031;-47
2023/12/21 02:53:39;;;;;;;17.23;2.55;;;11.90;99.90;;;;;;5146788;28;20058;-47
2023/12/21 02:56:05;;;;;;;9.35;2.22;;;11.90;99.90;;;;;;5145626;28;20023;-47
2023/12/21 02:58:31;;;;;;;10.20;2.00;;;11.90;99.90;;;;;;5146752;28;20046;-47
2023/12/21 03:00:57;;;;;;;9.10;1.90;;;12.00;99.90;;;;;;5145534;28;20090;-47
2023/12/21 03:03:22;;;;;;;12.82;2.30;;;12.00;99.90;;;;;;5145510;28;20027;-47
2023/12/21 03:05:48;;;;;;;13.25;2.30;;;12.00;99.90;;;;;;5146707;28;20076;-47
2023/12/21 03:08:14;;;;;;;14.00;2.45;;;12.00;99.90;;;;;;5146221;28;20035;-47
2023/12/21 03:10:39;;;;;;;15.23;3.42;;;12.00;99.90;;;;;;5146660;28;20039;-47
2023/12/21 03:13:06;;;;;;;15.23;2.22;;;12.00;99.90;;;;;;5146317;28;20038;-47
2023/12/21 03:15:31;;;;;;;10.85;2.80;;;12.00;99.90;;;;;;5146375;28;20041;-48
2023/12/21 03:17:57;;;;;;;12.02;2.33;;;12.00;99.90;;;;;;5146567;28;20047;-47
2023/12/21 03:20:23;;;;;;;15.35;2.58;;;12.00;99.90;;;;;;5145445;28;20244;-47
2023/12/21 03:22:48;;;;;;;12.50;2.15;;;12.00;99.90;;;;;;5146089;28;20035;-48
2023/12/21 03:25:14;;;;;;;8.70;1.83;;;12.00;99.90;;;;;;5146442;28;20023;-47
2023/12/21 03:27:40;;;;;;;11.38;2.50;;;12.00;99.90;;;;;;5146599;28;20067;-47
2023/12/21 03:30:06;;;;;;;16.20;2.50;;;12.00;99.90;;;;;;5146409;28;20038;-47
2023/12/21 03:32:32;;;;;;;15.55;2.58;;;12.00;99.90;;;;;;5146397;28;20280;-47
2023/12/21 03:34:58;;;;;;;16.00;2.50;;;12.00;99.90;;;;;;5146371;28;20027;-47
2023/12/21 03:37:27;;;;;;;10.85;2.58;;;12.00;99.90;;;;;;5146122;28;20304;-47
2023/12/21 03:39:54;;;;;;;14.47;2.60;;;11.90;99.90;;;;;;5145238;28;20059;-47
2023/12/21 03:42:20;;;;;;;14.98;2.90;;;12.00;99.90;;;;;;5146219;28;20158;-47
2023/12/21 03:44:45;;;;;;;13.10;2.40;;;11.90;99.90;;;;;;5145325;28;20035;-48
2023/12/21 03:47:11;;;;;;;9.55;3.15;;;12.00;99.90;;;;;;5147577;27;20024;-48
2023/12/21 03:49:37;;;;;;;18.73;3.22;;;11.90;99.90;;;;;;5150027;27;20166;-47
2023/12/21 03:52:02;;;;;;;13.48;2.65;;;12.00;99.90;;;;;;5149990;27;20023;-48
2023/12/21 03:54:28;;;;;;;14.40;2.38;;;11.90;99.90;;;;;;5149537;27;20170;-47
2023/12/21 03:56:54;;;;;;;19.10;3.00;;;11.90;99.90;;;;;;5149933;27;20045;-48
2023/12/21 03:59:19;;;;;;;22.38;2.47;;;11.90;99.90;;;;;;5149710;27;20225;-48
2023/12/21 04:01:45;;;;;;;12.60;2.25;;;11.90;99.90;;;;;;5149820;27;20148;-51
2023/12/21 04:04:11;;;;;;;15.25;2.72;;;11.90;99.90;;;;;;5149930;27;20035;-52
2023/12/21 04:06:36;;;;;;;13.57;2.10;;;12.00;99.90;;;;;;5149825;27;20019;-51
2023/12/21 04:09:02;;;;;;;11.27;2.42;;;12.00;99.90;;;;;;5149388;27;20098;-50
2023/12/21 04:11:28;;;;;;;7.78;1.77;;;12.00;99.90;;;;;;5149287;27;20063;-50
2023/12/21 04:13:54;;;;;;;22.08;3.42;;;12.00;99.90;;;;;;5149590;27;20039;-51
2023/12/21 04:16:20;;;;;;;14.23;2.75;;;12.00;99.90;;;;;;5149618;27;20277;-50
2023/12/21 04:18:45;;;;;;;13.50;2.35;;;12.10;99.90;;;;;;5149380;27;20027;-51
2023/12/21 04:21:11;;;;;;;15.95;3.08;;;12.10;99.90;;;;;;5149328;27;20318;-51
2023/12/21 04:23:36;;;;;;;13.68;2.60;;;12.10;99.90;;;;;;5148056;27;20202;-50
2023/12/21 04:26:02;;;;;;;10.30;2.33;;;12.10;99.90;;;;;;5149258;27;20034;-51
2023/12/21 04:28:28;;;;;;;10.80;2.08;;;12.10;99.90;;;;;;5149280;27;20011;-50
2023/12/21 04:30:54;;;;;;;13.30;1.90;;;12.10;99.90;;;;;;5149047;27;20034;-51
2023/12/21 04:33:20;;;;;;;10.23;2.22;;;12.10;99.90;;;;;;5148311;27;20122;-51
2023/12/21 04:35:46;;;;;;;15.20;2.75;;;12.20;99.90;;;;;;5149123;27;20034;-51
2023/12/21 04:38:12;;;;;;;11.68;3.03;;;12.10;99.90;;;;;;5148114;27;20062;-51
2023/12/21 04:40:38;;;;;;;12.35;2.60;;;12.10;99.90;;;;;;5148702;27;20061;-49
2023/12/21 04:43:04;;;;;;;14.85;2.45;;;12.10;99.90;;;;;;5148763;27;20181;-51
2023/12/21 04:45:30;;;;;;;12.68;1.75;;;12.00;99.90;;;;;;5149058;27;20024;-48
2023/12/21 04:47:55;;;;;;;6.05;1.77;;;11.90;99.90;;;;;;5149041;27;20069;-49
2023/12/21 04:50:21;;;;;;;18.02;2.75;;;11.90;99.90;;;;;;5148951;27;20027;-48
2023/12/21 04:52:47;;;;;;;10.25;2.42;;;11.90;99.90;;;;;;5148567;27;20058;-48
2023/12/21 04:55:13;;;;;;;15.15;2.40;;;11.80;99.90;;;;;;5148671;27;20088;-52
2023/12/21 04:57:38;;;;;;;21.02;2.80;;;11.80;99.90;;;;;;5148557;27;20019;-52
2023/12/21 05:00:06;;;;;;;11.63;2.83;;;11.80;99.90;;;;;;5147906;27;20027;-51
2023/12/21 05:02:32;;;;;;;18.70;2.53;;;11.70;99.90;;;;;;5148716;27;20046;-52
2023/12/21 05:04:58;;;;;;;16.63;2.97;;;11.70;99.90;;;;;;5148639;27;20035;-51
2023/12/21 05:07:23;;;;;;;15.15;2.22;;;11.70;99.90;;;;;;5148230;27;20039;-51
2023/12/21 05:09:49;;;;;;;19.55;3.22;;;11.70;99.90;;;;;;5130253;27;20035;-51
2023/12/21 05:12:15;;;;;;;18.23;3.28;;;11.60;99.90;;;;;;5148048;27;20047;-51
2023/12/21 05:14:40;;;;;;;16.38;2.70;;;11.60;99.90;;;;;;5148056;27;20038;-51
2023/12/21 05:17:07;;;;;;;17.30;2.60;;;11.60;99.90;;;;;;5147359;27;20050;-51
2023/12/21 05:19:33;;;;;;;21.25;4.20;;;11.60;99.90;;;;;;5147358;27;20188;-51
2023/12/21 05:21:58;;;;;;;17.33;3.55;;;11.60;99.90;;;;;;5148224;27;20091;-50
2023/12/21 05:24:24;;;;;;;14.68;2.78;;;11.60;99.90;;;;;;5148390;27;20055;-51
2023/12/21 05:26:50;;;;;;;14.77;2.60;;;11.60;99.90;;;;;;5148067;27;20027;-51
2023/12/21 05:29:15;;;;;;;22.70;3.40;;;11.60;99.90;;;;;;5148583;27;20038;-51
2023/12/21 05:31:44;;;;;;;10.73;2.22;;;11.60;99.90;;;;;;5148138;27;20083;-49
2023/12/21 05:34:09;;;;;;;11.55;2.38;;;11.60;99.90;;;;;;5147079;27;20015;-51
2023/12/21 05:36:35;;;;;;;13.40;2.42;;;11.60;99.90;;;;;;5148165;27;20303;-51
2023/12/21 05:39:01;;;;;;;13.82;2.15;;;11.60;99.90;;;;;;5148158;27;20068;-49
2023/12/21 05:41:27;;;;;;;12.43;2.88;;;11.60;99.90;;;;;;5147777;27;20026;-49
2023/12/21 05:43:53;;;;;;;13.43;2.42;;;11.60;99.90;;;;;;5147483;27;20027;-48
2023/12/21 05:46:18;;;;;;;19.10;2.83;;;11.60;99.90;;;;;;5146986;27;20098;-48
2023/12/21 05:48:44;;;;;;;16.67;2.85;;;11.60;99.90;;;;;;5147954;27;20035;-48
2023/12/21 05:51:10;;;;;;;13.40;2.20;;;11.60;99.90;;;;;;5146904;27;20069;-49
2023/12/21 05:53:35;;;;;;;20.52;2.78;;;11.60;99.90;;;;;;5147703;27;20042;-48
2023/12/21 05:56:02;;;;;;;18.17;2.55;;;11.60;99.90;;;;;;5147639;27;20099;-48
2023/12/21 05:58:28;;;;;;;17.05;3.25;;;11.60;99.90;;;;;;5147715;27;20019;-51
2023/12/21 06:00:54;;;;;;;26.30;3.05;;;11.60;99.90;;;;;;5147511;27;20035;-51
2023/12/21 06:03:20;;;;;;;28.10;4.15;;;11.60;99.90;;;;;;5147354;27;20184;-51
2023/12/21 06:05:46;;;;;;;15.25;2.38;;;11.70;99.90;;;;;;5147453;27;20043;-51
2023/12/21 06:08:11;;;;;;;17.38;2.70;;;11.70;99.90;;;;;;5146224;27;20110;-49
2023/12/21 06:10:37;;;;;;;18.27;3.63;;;11.70;99.90;;;;;;5147133;27;20030;-50
2023/12/21 06:13:03;;;;;;;18.45;3.20;;;11.80;99.90;;;;;;5147005;27;20085;-52
2023/12/21 06:15:28;;;;;;;19.25;3.03;;;11.80;99.90;;;;;;5146908;27;20059;-52
2023/12/21 06:17:54;;;;;;;17.83;3.30;;;11.80;99.90;;;;;;5147186;27;20086;-51
2023/12/21 06:20:20;;;;;;;13.48;2.80;;;11.80;99.90;;;;;;5147310;27;20062;-51
2023/12/21 06:22:45;;;;;;;14.20;2.55;;;11.80;99.90;;;;;;5146770;27;20039;-51
2023/12/21 06:25:11;;;;;;;13.93;2.25;;;11.90;99.90;;;;;;5147111;27;20281;-51
2023/12/21 06:27:37;;;;;;;11.70;1.83;;;11.90;99.90;;;;;;5145999;27;20205;-51
2023/12/21 06:30:04;;;;;;;18.70;3.05;;;11.90;99.90;;;;;;5147234;27;20154;-51
2023/12/21 06:32:30;;;;;;;10.15;2.25;;;11.90;99.90;;;;;;5147270;27;20015;-51
2023/12/21 06:34:56;;;;;;;11.77;2.90;;;11.90;99.90;;;;;;5146957;27;20076;-50
2023/12/21 06:37:21;;;;;;;13.18;2.55;;;11.90;99.90;;;;;;5146723;27;20054;-52
2023/12/21 06:39:47;;;;;;;12.98;2.17;;;11.90;99.90;;;;;;5146963;27;20027;-49
2023/12/21 06:42:13;;;;;;;13.10;2.67;;;11.90;99.90;;;;;;5146850;27;20034;-49
2023/12/21 06:44:39;;;;;;;11.63;2.05;;;11.90;99.90;;;;;;5146939;27;20030;-50
2023/12/21 06:47:05;;;;;;;12.63;2.10;;;11.90;99.90;;;;;;5145646;27;20022;-51
2023/12/21 06:49:31;;;;;;;12.05;2.55;;;11.90;99.90;;;;;;5146697;27;20019;-51
2023/12/21 06:51:56;;;;;;;11.95;2.30;;;12.00;99.90;;;;;;5145805;27;20035;-51
2023/12/21 06:54:22;;;;;;;9.82;1.92;;;12.00;99.90;;;;;;5146808;28;20030;-51
2023/12/21 06:56:48;;;;;;;11.20;1.98;;;12.00;99.90;;;;;;5146602;28;20080;-48
2023/12/21 06:59:13;;;;;;;13.88;2.00;;;12.00;99.90;;;;;;5145759;28;20281;-47
2023/12/21 07:01:40;;;;;;;11.73;2.35;;;12.00;99.90;;;;;;5146401;28;20023;-48
2023/12/21 07:04:08;;;;;;;10.32;1.90;;;12.00;99.90;;;;;;5146259;28;20227;-48
2023/12/21 07:06:34;;;;;;;15.88;2.55;;;12.00;99.90;;;;;;5146556;28;20038;-47
2023/12/21 07:09:00;;;;;;;11.77;2.42;;;12.00;99.90;;;;;;5146259;28;20046;-48
2023/12/21 07:11:26;;;;;;;10.80;1.80;;;12.00;99.90;;;;;;5146511;28;20086;-49
2023/12/21 07:13:51;;;;;;;15.07;2.85;;;12.00;99.90;;;;;;5146847;27;20045;-51
2023/12/21 07:16:17;;;;;;;10.77;2.00;;;12.10;99.90;;;;;;5146814;28;20047;-49
2023/12/21 07:18:43;;;;;;;10.05;1.92;;;12.10;99.90;;;;;;5146043;28;20027;-51
2023/12/21 07:21:08;;;;;;;14.95;2.30;;;12.10;99.90;;;;;;5146492;27;20031;-48
2023/12/21 07:23:34;;;;;;;16.40;2.33;;;12.20;99.90;;;;;;5149048;27;20027;-49
2023/12/21 07:26:00;;;;;;;11.85;1.95;;;12.10;99.90;;;;;;5149595;27;20133;-49
2023/12/21 07:28:28;;;;;;;9.30;2.20;;;12.20;99.90;;;;;;5150428;27;20023;-51
2023/12/21 07:30:54;;;;;;;16.52;2.60;;;12.20;99.90;;;;;;5150400;27;20023;-48
2023/12/21 07:33:19;;;;;;;14.35;2.17;;;12.20;99.90;;;;;;5149311;27;20030;-51
2023/12/21 07:35:45;;;;;;;16.17;2.08;;;12.20;99.90;;;;;;5150639;27;20031;-51
2023/12/21 07:38:10;;;;;;;13.65;1.95;;;12.20;99.90;;;;;;5149409;27;20235;-49
2023/12/21 07:40:37;;;;;;;12.07;2.33;;;12.20;99.90;;;;;;5150178;27;20023;-48
2023/12/21 07:43:03;;;;;;;12.43;1.92;;;12.10;99.90;;;;;;5149860;27;20030;-49
2023/12/21 07:45:28;;;;;;;12.35;2.45;;;12.10;99.90;;;;;;5150040;27;20033;-48
2023/12/21 07:47:54;;;;;;;15.15;2.20;;;12.10;99.90;;;;;;5150054;27;20019;-49
2023/12/21 07:50:20;;;;;;;14.05;2.13;;;12.00;99.90;;;;;;5149529;27;20038;-49
2023/12/21 07:52:45;;;;;;;15.10;2.85;;;12.00;99.90;;;;;;5131612;27;20073;-48
2023/12/21 07:55:11;;;;;;;10.15;2.25;;;12.00;99.90;;;;;;5149987;27;20050;-48
2023/12/21 07:57:37;;;;;;;12.00;2.25;;;12.00;99.90;;;;;;5148774;27;20332;-49
2023/12/21 08:00:03;;;;;;;13.77;2.50;;;12.00;99.90;;;;;;5149877;27;20023;-51
2023/12/21 08:02:28;;;;;;;15.13;2.40;;;12.00;99.90;;;;;;5149608;27;20047;-50
2023/12/21 08:04:54;;;;;;;12.25;2.47;;;11.90;99.90;;;;;;5149754;27;20036;-49
2023/12/21 08:07:20;;;;;;;13.85;2.33;;;11.90;99.90;;;;;;5149419;27;20301;-49
2023/12/21 08:09:45;;;;;;;11.38;2.65;;;11.80;99.90;;;;;;5149658;27;20023;-49
2023/12/21 08:12:14;;;;;;;8.57;1.70;;;11.80;99.90;;;;;;5149526;27;20027;-50
2023/12/21 08:14:40;;;;;;;17.85;2.00;;;11.80;99.90;;;;;;5149574;27;20038;-49
2023/12/21 08:17:09;;;;;;;8.40;2.05;;;11.90;99.90;;;;;;5149524;27;20026;-50
2023/12/21 08:19:37;;;;;;;12.55;1.77;;;11.90;99.90;;;;;;5148510;27;20096;-48
2023/12/21 08:22:02;;;;;;;13.82;2.05;;;11.90;99.90;;;;;;5148782;27;20031;-51
2023/12/21 08:24:28;;;;;;;14.27;2.45;;;11.90;99.90;;;;;;5149539;27;20169;-51
2023/12/21 08:26:54;;;;;;;14.05;1.92;;;11.80;99.90;;;;;;5149223;27;20023;-51
2023/12/21 08:29:19;;;;;;;17.02;3.13;;;11.80;99.90;;;;;;5149326;27;20149;-51
2023/12/21 08:31:45;;;;;;;9.13;1.95;;;11.80;99.90;;;;;;5148982;27;20285;-51
2023/12/21 08:34:12;;;;;;;14.35;2.80;;;11.90;99.90;;;;;;5148104;27;20042;-50
2023/12/21 08:36:37;;;;;;;9.13;2.38;;;11.90;99.90;;;;;;5148641;27;20025;-48
2023/12/21 08:39:04;;;;;;;11.73;2.78;;;12.00;99.90;;;;;;5148687;27;20027;-48
2023/12/21 08:41:29;;;;;;;13.98;2.28;;;12.00;99.90;;;;;;5148737;27;20023;-48
2023/12/21 08:43:55;;;;;;;11.88;2.08;;;12.00;99.90;;;;;;5147751;27;20027;-49
2023/12/21 08:46:21;;;;;;;12.73;2.28;;;12.00;99.90;;;;;;5149169;27;20038;-48
2023/12/21 08:48:47;;;;;;;7.75;1.90;;;12.10;99.90;;;;;;5148488;27;20292;-48
2023/12/21 08:51:14;;;;;;;12.65;1.80;;;12.00;99.90;;;;;;5130422;27;20023;-50
2023/12/21 08:53:39;;;;;;;7.97;1.70;;;12.10;99.90;;;;;;5148788;27;20035;-48
2023/12/21 08:56:06;;;;;;;14.98;2.28;;;12.10;99.90;;;;;;5147673;27;20058;-48
2023/12/21 08:58:31;;;;;;;9.20;2.63;;;12.10;99.90;;;;;;5148495;27;20022;-49
2023/12/21 09:00:58;;;;;;;20.02;3.25;;;12.20;99.90;;;;;;5148212;27;20031;-51
2023/12/21 09:03:24;;;;;;;10.50;2.20;;;12.20;99.90;;;;;;5148390;27;20088;-51
2023/12/21 09:05:50;;;;;;;13.30;2.95;;;12.20;99.90;;;;;;5147829;27;20023;-51
2023/12/21 09:08:16;;;;;;;16.30;2.53;;;12.20;99.90;;;;;;5148382;27;20035;-49
2023/12/21 09:10:41;;;;;;;15.45;2.75;;;12.20;99.90;;;;;;5148116;27;20042;-51
2023/12/21 09:13:07;;;;;;;9.90;2.10;;;12.20;99.90;;;;;;5147602;27;20023;-50
2023/12/21 09:15:33;;;;;;;16.02;2.45;;;12.20;99.90;;;;;;5147605;27;20031;-50
2023/12/21 09:17:59;;;;;;;13.40;2.47;;;12.20;99.90;;;;;;5148181;27;20334;-51
2023/12/21 09:20:25;;;;;;;12.75;2.20;;;12.20;99.90;;;;;;5148284;27;20087;-48
2023/12/21 09:22:50;;;;;;;13.52;2.65;;;12.20;99.90;;;;;;5147941;27;20337;-58
2023/12/21 09:25:18;;;;;;;11.35;1.90;;;12.20;99.90;;;;;;5147879;27;20027;-52
2023/12/21 09:27:44;;;;;;;10.10;1.90;;;12.20;99.90;;;;;;5147888;27;20015;-51
2023/12/21 09:30:10;;;;;;;12.05;2.20;;;12.30;99.90;;;;;;5146971;27;20019;-53
2023/12/21 09:32:35;;;;;;;10.75;2.33;;;12.20;99.90;;;;;;5148006;27;20027;-51
2023/12/21 09:35:01;;;;;;;12.93;2.15;;;12.20;99.90;;;;;;5129211;27;20177;-51
2023/12/21 09:37:27;;;;;;;11.32;2.75;;;12.30;99.90;;;;;;5147563;27;20146;-51
2023/12/21 09:39:53;;;;;;;12.82;2.03;;;12.20;99.90;;;;;;5147504;27;20154;-51
2023/12/21 09:42:18;;;;;;;13.10;2.55;;;12.20;99.90;;;;;;5147632;27;20285;-50
2023/12/21 09:44:47;;;;;;;14.45;2.70;;;12.20;99.90;;;;;;5145454;27;20103;-47
2023/12/21 09:47:13;;;;;;;11.90;2.43;;;12.20;99.90;;;;;;5147280;27;20150;-46
2023/12/21 09:49:39;;;;;;;14.27;2.30;;;12.20;99.90;;;;;;5129221;27;20265;-49
2023/12/21 09:52:07;;;;;;;11.10;2.53;;;12.20;99.90;;;;;;5147884;27;20132;-51
2023/12/21 09:54:33;;;;;;;13.52;2.95;;;12.20;99.90;;;;;;5146276;27;20038;-50
2023/12/21 09:56:58;;;;;;;12.55;2.42;;;12.20;99.90;;;;;;5128890;27;20034;-50
2023/12/21 09:59:30;;;;;;;19.15;3.05;;;12.20;99.90;;;;;;5145865;27;20019;-51
2023/12/21 10:01:55;;;;;;;9.88;3.28;;;12.30;99.90;;;;;;5146128;27;20049;-48
2023/12/21 10:04:21;;;;;;;11.50;2.75;;;12.30;99.90;;;;;;5147167;27;20172;-50
2023/12/21 10:06:47;;;;;;;20.33;2.95;;;12.30;99.90;;;;;;5145871;27;20023;-51
2023/12/21 10:09:15;;;;;;;19.17;2.78;;;12.30;99.90;;;;;;5145723;27;20074;-51
2023/12/21 10:11:41;;;;;;;14.88;3.30;;;12.40;99.90;;;;;;5144853;28;20219;-50
2023/12/21 10:14:16;;;;;;;13.85;2.17;;;12.40;99.90;;;;;;5146204;28;20023;-51
2023/12/21 10:16:42;;;;;;;18.73;2.42;;;12.40;99.90;;;;;;5145861;28;20026;-51
2023/12/21 10:19:11;;;;;;;16.60;3.17;;;12.40;99.90;;;;;;5144725;28;20088;-47
2023/12/21 10:21:41;;;;;;;23.73;4.30;;;12.40;99.90;;;;;;5145814;28;20048;-50
2023/12/21 10:24:07;;;;;;;15.73;2.85;;;12.40;99.90;;;;;;5146172;28;20088;-49
2023/12/21 10:26:44;;;;;;;17.65;3.20;;;12.40;99.90;;;;;;5146804;28;20035;-51
2023/12/21 10:29:14;;;;;;;16.88;2.95;;;12.40;99.90;;;;;;5145933;28;20041;-49
2023/12/21 10:31:44;;;;;;;21.23;3.35;;;12.30;99.90;;;;;;5146085;28;20054;-50
2023/12/21 10:34:09;;;;;;;;;;;12.30;99.90;;;;;;5146176;27;20023;-49
2023/12/21 10:36:39;;;;;;;17.42;3.50;;;12.30;99.90;;;;;;5146204;28;19918;-49
2023/12/21 10:39:05;;;;;;;24.00;4.82;;;12.30;99.90;;;;;;5127462;28;20162;-51
2023/12/21 10:41:30;;;;;;;21.60;4.15;;;12.40;99.90;;;;;;5128071;28;20058;-48
2023/12/21 10:43:56;;;;;;;18.20;3.85;;;12.40;99.90;;;;;;5144581;28;20039;-50
2023/12/21 10:46:22;;;;;;;22.35;3.45;;;12.40;99.90;;;;;;5145615;28;20030;-49
2023/12/21 10:48:48;;;;;;;22.10;3.92;;;12.40;99.90;;;;;;5144803;28;20019;-49
2023/12/21 10:51:14;;;;;;;20.13;4.07;;;12.40;99.90;;;;;;5145090;28;20048;-48
2023/12/21 10:53:40;;;;;;;23.00;4.18;;;12.40;99.90;;;;;;5144534;28;20154;-49
2023/12/21 10:56:06;;;;;;;28.35;4.32;;;12.40;99.90;;;;;;5144764;27;20210;-50
2023/12/21 10:58:31;;;;;;;25.58;4.38;;;12.40;99.90;;;;;;5144740;28;20031;-48
2023/12/21 11:00:57;;;;;;;25.27;5.30;;;12.50;99.90;;;;;;5144851;28;20043;-47
2023/12/21 11:03:22;;;;;;;25.27;3.95;;;12.50;99.90;;;;;;5145200;28;20023;-46
2023/12/21 11:05:49;;;;;;;20.30;4.78;;;12.40;99.90;;;;;;5145159;28;20026;-48
2023/12/21 11:08:14;;;;;;;30.50;4.78;;;12.40;99.90;;;;;;5102928;27;1197897;-47
2023/12/21 11:10:40;;;;;;;23.27;4.22;;;12.30;99.90;;;;;;5146685;28;20072;-47
2023/12/21 11:13:06;;;;;;;27.38;3.92;;;12.30;99.90;;;;;;5146148;28;20304;-47
2023/12/21 11:15:32;;;;;;;18.15;3.15;;;12.20;99.90;;;;;;5145799;28;20012;-47
2023/12/21 11:18:09;;;;;;;21.08;3.38;;;12.00;99.90;;;;;;5145160;28;20107;-47
2023/12/21 11:20:40;;;;;;;26.17;3.97;;;11.90;99.90;;;;;;5145178;28;20035;-50
2023/12/21 11:23:06;;;;;;;16.08;3.80;;;11.70;99.90;;;;;;5128088;28;20023;-48
2023/12/21 11:25:31;;;;;;;14.85;2.72;;;11.60;99.90;;;;;;5145645;28;20035;-47
2023/12/21 11:28:02;;;;;;;14.75;2.85;;;11.50;99.90;;;;;;5144957;28;20173;-47
2023/12/21 11:30:28;;;;;;;16.58;2.67;;;11.50;99.90;;;;;;5145182;28;20068;-48
2023/12/21 11:33:06;;;;;;;12.95;2.55;;;11.50;99.90;;;;;;5127603;28;20254;-47
2023/12/21 11:35:32;;;;;;;17.02;3.38;;;11.50;99.90;;;;;;5145694;27;20237;-48
2023/12/21 11:38:00;;;;;;;16.45;3.00;;;11.50;99.90;;;;;;5144741;28;20042;-47
2023/12/21 11:40:26;;;;;;;11.88;2.05;;;11.60;99.90;;;;;;5146081;28;20015;-47
2023/12/21 11:42:55;;;;;;;14.40;2.40;;;11.70;99.90;;;;;;5145608;28;20094;-48
2023/12/21 11:45:25;;;;;;;15.55;2.97;;;11.70;99.90;;;;;;5127755;28;20079;-47
2023/12/21 11:47:54;;;;;;;21.05;3.60;;;11.80;99.90;;;;;;5144507;28;20230;-47
2023/12/21 11:50:21;;;;;;;18.50;4.17;;;12.30;99.90;;;;;;5145907;28;20154;-49
2023/12/21 11:52:48;;;;;;;14.15;2.67;;;13.30;99.90;;;;;;5145379;28;20261;-48
2023/12/21 11:55:38;;;;;;;14.95;2.95;;;13.90;99.90;;;;;;5110962;28;20185;-48
2023/12/21 11:58:15;;;;;;;21.08;3.80;;;14.30;99.90;;;;;;5133264;28;20066;-48
2023/12/21 12:00:48;;;;;;;15.35;4.35;;;14.50;99.90;;;;;;5146397;28;20129;-49
2023/12/21 12:03:14;;;;;;;20.42;3.47;;;14.20;99.90;;;;;;5145650;28;20083;-48
2023/12/21 12:05:40;;;;;;;53.58;14.60;;;13.60;99.90;;;;;;5144541;28;20026;-48
2023/12/21 12:08:06;;;;;;;24.50;5.90;;;13.40;99.90;;;;;;5145819;27;20050;-49
2023/12/21 12:10:32;;;;;;;21.55;4.22;;;13.80;99.90;;;;;;5149398;27;20058;-49
2023/12/21 12:12:59;;;;;;;18.38;6.25;;;14.20;99.90;;;;;;5148200;27;20034;-48
2023/12/21 12:15:24;;;;;;;18.25;4.05;;;14.50;99.90;;;;;;5149661;27;20015;-50
2023/12/21 12:17:50;;;;;;;23.52;4.68;;;14.60;99.90;;;;;;5147770;27;20375;-52
2023/12/21 12:20:15;;;;;;;32.10;8.02;;;14.90;99.90;;;;;;5148827;27;20031;-52
2023/12/21 12:22:42;;;;;;;20.83;4.40;;;15.10;99.90;;;;;;5149104;27;20059;-52
2023/12/21 12:25:08;;;;;;;16.33;3.45;;;15.30;99.90;;;;;;5130979;27;20185;-52
2023/12/21 12:27:34;;;;;;;13.38;3.15;;;15.10;99.90;;;;;;5148902;27;20016;-52
2023/12/21 12:29:59;;;;;;;25.98;8.07;;;15.00;99.90;;;;;;5148327;27;20169;-51
2023/12/21 12:32:25;;;;;;;33.17;14.40;;;14.60;99.90;;;;;;5149196;27;20169;-51